createdAt,value
2024-04-09T00:01:46.168Z,17.55
2024-04-09T00:06:52.047Z,15.65
2024-04-09T00:12:00.388Z,18.48
2024-04-09T00:17:06.454Z,12.65
2024-04-09T00:22:11.686Z,11.95
2024-04-09T00:27:19.500Z,14.98
2024-04-09T00:32:24.766Z,12.70
2024-04-09T00:37:30.214Z,12.45
2024-04-09T00:42:38.165Z,14.85
2024-04-09T00:47:46.545Z,14.32
2024-04-09T00:52:56.366Z,13.75
2024-04-09T00:58:07.359Z,9.95
2024-04-09T01:03:13.204Z,13.73
2024-04-09T01:08:18.664Z,13.20
2024-04-09T01:13:26.501Z,15.45
2024-04-09T01:18:31.728Z,19.98
2024-04-09T01:23:40.428Z,12.73
2024-04-09T01:28:47.547Z,8.85
2024-04-09T01:33:53.628Z,11.85
2024-04-09T01:39:01.749Z,11.77
2024-04-09T01:44:07.951Z,12.40
2024-04-09T01:49:13.352Z,10.25
2024-04-09T01:54:21.234Z,12.38
2024-04-09T01:59:26.700Z,10.95
2024-04-09T02:04:32.053Z,13.27
2024-04-09T02:09:40.061Z,10.52
2024-04-09T02:14:45.297Z,13.45
2024-04-09T02:19:50.438Z,10.05
2024-04-09T02:24:58.302Z,16.25
2024-04-09T02:30:04.755Z,13.57
2024-04-09T02:35:13.249Z,13.27
2024-04-09T02:40:21.168Z,13.45
2024-04-09T02:45:27.362Z,13.13
2024-04-09T02:50:32.547Z,10.68
2024-04-09T02:55:40.430Z,12.57
2024-04-09T03:00:46.163Z,16.48
2024-04-09T03:05:51.856Z,17.88
2024-04-09T03:10:59.746Z,10.13
2024-04-09T03:16:04.986Z,15.95
2024-04-09T03:21:10.234Z,18.05
2024-04-09T03:26:18.393Z,14.38
2024-04-09T03:31:23.747Z,18.90
2024-04-09T03:36:28.865Z,19.38
2024-04-09T03:41:36.761Z,18.63
2024-04-09T03:46:42.288Z,15.88
2024-04-09T03:51:47.870Z,20.25
2024-04-09T03:56:56.027Z,13.98
2024-04-09T04:02:01.252Z,20.63
2024-04-09T04:07:06.419Z,13.95
2024-04-09T04:12:14.373Z,18.85
2024-04-09T04:17:19.659Z,21.55
2024-04-09T04:22:24.980Z,16.00
2024-04-09T04:27:32.816Z,14.27
2024-04-09T04:32:38.069Z,18.85
2024-04-09T04:37:43.234Z,16.65
2024-04-09T04:42:51.055Z,17.67
2024-04-09T04:47:56.436Z,23.83
2024-04-09T04:53:02.415Z,15.75
2024-04-09T04:58:10.610Z,10.95
2024-04-09T05:03:16.016Z,9.15
2024-04-09T05:08:21.685Z,10.70
2024-04-09T05:13:29.660Z,16.08
2024-04-09T05:18:35.047Z,8.60
2024-04-09T05:23:40.269Z,6.88
2024-04-09T05:28:48.091Z,7.95
2024-04-09T05:33:53.308Z,12.85
2024-04-09T05:38:58.489Z,6.72
2024-04-09T05:44:06.691Z,8.82
2024-04-09T05:49:12.085Z,7.70
2024-04-09T05:54:21.225Z,8.63
2024-04-09T05:59:31.533Z,6.55
2024-04-09T06:04:36.751Z,7.25
2024-04-09T06:09:42.805Z,6.28
2024-04-09T06:14:50.695Z,3.47
2024-04-09T06:19:58.702Z,4.05
2024-04-09T06:25:04.468Z,5.78
2024-04-09T06:30:14.164Z,5.00
2024-04-09T06:35:20.251Z,8.77
2024-04-09T06:40:25.593Z,6.63
2024-04-09T06:45:33.822Z,6.63
2024-04-09T06:50:39.154Z,5.55
2024-04-09T06:55:45.319Z,5.07
2024-04-09T07:00:54.265Z,7.75
2024-04-09T07:05:59.435Z,6.28
2024-04-09T07:11:05.612Z,12.60
2024-04-09T07:16:13.725Z,6.88
2024-04-09T07:21:19.122Z,8.55
2024-04-09T07:26:24.345Z,4.65
2024-04-09T07:31:32.416Z,21.25
2024-04-09T07:36:38.879Z,5.28
2024-04-09T07:41:44.272Z,5.43
2024-04-09T07:46:53.448Z,3.50
2024-04-09T07:51:58.802Z,1.55
2024-04-09T07:57:05.263Z,3.88
2024-04-09T08:02:13.330Z,8.82
2024-04-09T08:07:18.801Z,15.00
2024-04-09T08:12:25.305Z,3.53
2024-04-09T08:17:33.425Z,8.00
2024-04-09T08:22:38.830Z,4.03
2024-04-09T08:27:44.123Z,9.77
2024-04-09T08:32:53.191Z,6.35
2024-04-09T08:37:59.080Z,3.60
2024-04-09T08:43:04.686Z,5.60
2024-04-09T08:48:15.632Z,6.53
2024-04-09T08:53:21.851Z,2.42
2024-04-09T08:58:27.293Z,1.15
2024-04-09T09:03:35.498Z,10.18
2024-04-09T09:08:44.775Z,8.07
2024-04-09T09:13:50.159Z,2.35
2024-04-09T09:19:09.514Z,2.83
2024-04-09T09:24:14.760Z,0.90
2024-04-09T09:29:20.015Z,3.40
2024-04-09T09:34:36.123Z,5.25
2024-04-09T09:39:47.344Z,11.23
2024-04-09T09:44:54.391Z,2.10
2024-04-09T09:50:10.912Z,2.80
2024-04-09T09:55:23.269Z,1.45
2024-04-09T10:00:30.418Z,2.55
2024-04-09T10:05:38.824Z,5.18
2024-04-09T10:10:46.339Z,2.72
2024-04-09T10:15:51.993Z,2.60
2024-04-09T10:20:59.851Z,5.88
2024-04-09T10:26:07.137Z,1.25
2024-04-09T10:31:14.777Z,4.60
2024-04-09T10:36:23.604Z,1.60
2024-04-09T10:41:29.167Z,3.58
2024-04-09T10:46:34.358Z,2.85
2024-04-09T10:51:42.226Z,1.50
2024-04-09T10:56:47.540Z,2.63
2024-04-09T11:01:53.969Z,2.60
2024-04-09T11:07:02.170Z,2.00
2024-04-09T11:12:08.870Z,2.67
2024-04-09T11:17:19.873Z,1.52
2024-04-09T11:22:27.628Z,2.17
2024-04-09T11:27:33.079Z,3.28
2024-04-09T11:32:39.314Z,4.25
2024-04-09T11:37:53.092Z,1.10
2024-04-09T11:43:00.156Z,2.47
2024-04-09T11:48:06.264Z,1.35
2024-04-09T11:53:20.081Z,0.90
2024-04-09T11:58:26.185Z,1.58
2024-04-09T12:03:31.760Z,2.58
2024-04-09T12:08:39.565Z,4.10
2024-04-09T12:13:44.694Z,1.10
2024-04-09T12:18:50.141Z,2.78
2024-04-09T12:23:58.015Z,0.90
2024-04-09T12:29:03.451Z,4.13
2024-04-09T12:34:08.912Z,1.80
2024-04-09T12:39:17.098Z,1.58
2024-04-09T12:44:22.306Z,0.82
2024-04-09T12:49:38.160Z,2.45
2024-04-09T12:54:52.134Z,1.75
2024-04-09T13:00:13.433Z,0.70
2024-04-09T13:05:24.170Z,0.60
2024-04-09T13:10:34.279Z,0.98
2024-04-09T13:20:47.700Z,1.90
2024-04-09T13:25:56.119Z,1.17
2024-04-09T13:31:01.469Z,0.82
2024-04-09T13:36:07.265Z,0.70
2024-04-09T13:41:15.027Z,1.27
2024-04-09T13:46:20.895Z,2.30
2024-04-09T13:51:26.157Z,2.55
2024-04-09T13:56:33.897Z,1.27
2024-04-09T14:01:39.398Z,1.48
2024-04-09T14:06:44.625Z,0.85
2024-04-09T14:11:52.566Z,1.27
2024-04-09T14:16:57.885Z,0.85
2024-04-09T14:22:04.270Z,2.20
2024-04-09T14:27:12.559Z,4.80
2024-04-09T14:32:18.329Z,1.10
2024-04-09T14:37:24.989Z,1.45
2024-04-09T14:42:32.753Z,0.93
2024-04-09T14:47:38.091Z,1.48
2024-04-09T14:52:43.762Z,2.63
2024-04-09T14:57:51.559Z,0.85
2024-04-09T15:02:56.716Z,1.42
2024-04-09T15:08:02.064Z,0.90
2024-04-09T15:13:11.421Z,2.75
2024-04-09T15:18:16.814Z,0.97
2024-04-09T15:23:22.350Z,0.88
2024-04-09T15:28:30.229Z,2.47
2024-04-09T15:33:35.489Z,0.82
2024-04-09T15:38:41.312Z,2.50
2024-04-09T15:43:50.637Z,1.58
2024-04-09T15:48:56.204Z,1.03
2024-04-09T15:54:01.998Z,4.53
2024-04-09T15:59:10.000Z,2.45
2024-04-09T16:04:15.667Z,3.70
2024-04-09T16:09:21.533Z,0.70
2024-04-09T16:14:29.850Z,2.22
2024-04-09T16:19:35.287Z,1.25
2024-04-09T16:24:40.432Z,1.90
2024-04-09T16:29:48.343Z,1.33
2024-04-09T16:34:53.608Z,0.60
2024-04-09T16:39:58.797Z,1.17
2024-04-09T16:45:07.260Z,1.55
2024-04-09T16:50:13.850Z,0.98
2024-04-09T16:55:19.328Z,1.67
2024-04-09T17:00:27.095Z,1.58
2024-04-09T17:05:32.660Z,0.98
2024-04-09T17:10:37.889Z,3.28
2024-04-09T17:15:45.973Z,1.63
2024-04-09T17:20:51.588Z,2.22
2024-04-09T17:26:03.409Z,1.92
2024-04-09T17:31:11.355Z,2.92
2024-04-09T17:36:16.600Z,3.00
2024-04-09T17:41:21.899Z,1.42
2024-04-09T17:46:29.906Z,4.60
2024-04-09T17:51:35.275Z,1.02
2024-04-09T17:56:41.549Z,1.58
2024-04-09T18:01:49.485Z,2.35
2024-04-09T18:06:55.919Z,0.77
2024-04-09T18:12:01.544Z,1.23
2024-04-09T18:17:10.112Z,2.47
2024-04-09T18:22:15.439Z,2.35
2024-04-09T18:27:20.854Z,2.20
2024-04-09T18:32:31.639Z,1.70
2024-04-09T18:37:39.420Z,2.28
2024-04-09T18:42:44.716Z,1.10
2024-04-09T18:47:52.814Z,2.58
2024-04-09T18:52:58.103Z,2.03
2024-04-09T18:58:04.111Z,1.30
2024-04-09T19:03:12.644Z,1.30
2024-04-09T19:08:18.010Z,2.40
2024-04-09T19:13:23.319Z,2.13
2024-04-09T19:18:31.446Z,2.08
2024-04-09T19:23:37.072Z,1.45
2024-04-09T19:28:42.618Z,1.88
2024-04-09T19:33:50.796Z,1.13
2024-04-09T19:38:56.450Z,1.60
2024-04-09T19:44:09.898Z,3.22
2024-04-09T19:49:26.402Z,2.38
2024-04-09T19:54:31.723Z,2.95
2024-04-09T19:59:39.581Z,1.70
2024-04-09T20:04:47.757Z,1.20
2024-04-09T20:09:53.091Z,2.13
2024-04-09T20:14:58.248Z,1.92
2024-04-09T20:20:07.710Z,1.83
2024-04-09T20:25:12.938Z,3.53
2024-04-09T20:30:18.280Z,1.60
2024-04-09T20:35:36.190Z,1.85
2024-04-09T20:40:58.101Z,2.75
2024-04-09T20:46:04.213Z,2.28
2024-04-09T20:51:12.011Z,1.88
2024-04-09T20:56:17.515Z,4.15
2024-04-09T21:01:23.152Z,3.75
2024-04-09T21:06:30.976Z,3.53
2024-04-09T21:11:36.762Z,6.05
2024-04-09T21:16:42.147Z,1.67
2024-04-09T21:21:50.024Z,1.85
2024-04-09T21:26:55.453Z,3.63
2024-04-09T21:32:00.631Z,4.13
2024-04-09T21:37:08.546Z,2.90
2024-04-09T21:42:13.687Z,4.63
2024-04-09T21:47:19.132Z,3.08
2024-04-09T21:52:28.715Z,7.38
2024-04-09T21:57:34.091Z,3.47
2024-04-09T22:02:39.574Z,3.65
2024-04-09T22:07:47.984Z,3.30
2024-04-09T22:13:01.637Z,1.48
2024-04-09T22:18:07.508Z,1.98
2024-04-09T22:23:16.782Z,7.07
2024-04-09T22:28:22.174Z,2.60
2024-04-09T22:33:27.990Z,1.40
2024-04-09T22:38:35.981Z,2.00
2024-04-09T22:43:41.261Z,2.80
2024-04-09T22:48:47.877Z,3.92
2024-04-09T22:53:58.395Z,4.15
2024-04-09T22:59:03.583Z,2.58
2024-04-09T23:04:08.819Z,3.65
2024-04-09T23:09:20.679Z,2.72
2024-04-09T23:14:25.928Z,2.88
2024-04-09T23:19:31.272Z,2.38
2024-04-09T23:24:39.067Z,6.55
2024-04-09T23:29:44.431Z,4.65
2024-04-09T23:34:49.567Z,2.80
2024-04-09T23:39:57.424Z,4.07
2024-04-09T23:45:03.121Z,2.42
2024-04-09T23:50:08.780Z,1.55
2024-04-09T23:55:16.910Z,2.67
